Time;durP1;ratioP1;P1;durP2;ratioP2;P2;SDS_P1;SDS_P2;PMS_P1;PMS_P2;Temp;Humidity;BMP_temperature;BMP_pressure;BME280_temperature;BME280_humidity;BME280_pressure;Samples;Min_cycle;Max_cycle;Signal;HPM_P1;HPM_P2
2021/05/28 00:02:24;;;;;;;15.57;7.20;;;;;;;7.47;100.00;102321.13;3617186;39;20051;-64
2021/05/28 00:04:51;;;;;;;12.35;7.03;;;;;;;7.47;100.00;102310.41;3616934;39;20051;-64
2021/05/28 00:07:17;;;;;;;8.23;5.38;;;;;;;7.41;100.00;102314.28;3617284;39;20047;-65
2021/05/28 00:09:42;;;;;;;9.50;5.70;;;;;;;7.37;100.00;102316.22;3617846;39;20047;-64
2021/05/28 00:12:09;;;;;;;10.63;6.45;;;;;;;7.31;100.00;102316.56;3617020;39;20055;-64
2021/05/28 00:14:35;;;;;;;11.80;7.03;;;;;;;7.29;100.00;102310.44;3617673;39;20286;-64
2021/05/28 00:17:01;;;;;;;13.05;7.25;;;;;;;7.32;100.00;102315.63;3617409;39;20074;-64
2021/05/28 00:19:27;;;;;;;9.02;6.82;;;;;;;7.25;100.00;102322.22;3616859;39;20086;-64
2021/05/28 00:21:54;;;;;;;9.18;5.68;;;;;;;7.22;100.00;102326.91;3617626;39;20317;-64
2021/05/28 00:24:20;;;;;;;10.48;6.10;;;;;;;7.16;100.00;102322.72;3616983;39;20059;-64
2021/05/28 00:26:46;;;;;;;10.10;6.85;;;;;;;7.09;100.00;102329.31;3615883;39;20412;-64
2021/05/28 00:29:12;;;;;;;8.80;6.55;;;;;;;7.08;100.00;102336.50;3616266;39;20059;-64
2021/05/28 00:31:38;;;;;;;9.07;6.78;;;;;;;7.01;100.00;102333.25;3616874;39;20109;-64
2021/05/28 00:34:04;;;;;;;9.05;6.40;;;;;;;7.14;100.00;102340.66;3615588;39;20035;-64
2021/05/28 00:36:30;;;;;;;12.50;6.70;;;;;;;7.18;100.00;102342.22;3616353;39;20132;-64
2021/05/28 00:38:57;;;;;;;11.77;6.57;;;;;;;7.40;100.00;102349.19;3617200;39;20066;-64
2021/05/28 00:41:23;;;;;;;10.57;7.00;;;;;;;7.46;100.00;102343.50;3615958;39;20043;-64
2021/05/28 00:43:49;;;;;;;16.25;7.63;;;;;;;7.56;100.00;102344.75;3616176;39;20143;-64
2021/05/28 00:46:15;;;;;;;11.57;6.60;;;;;;;7.67;100.00;102344.19;3616314;39;20040;-64
2021/05/28 00:48:41;;;;;;;11.02;6.40;;;;;;;7.68;100.00;102341.41;3617056;39;20055;-64
2021/05/28 00:51:07;;;;;;;17.48;7.22;;;;;;;7.60;100.00;102334.75;3616491;39;20462;-64
2021/05/28 00:53:33;;;;;;;12.13;7.00;;;;;;;7.45;100.00;102339.09;3616675;39;20079;-64
2021/05/28 00:56:01;;;;;;;15.35;7.47;;;;;;;7.33;100.00;102341.47;3616530;39;20054;-65
2021/05/28 00:58:27;;;;;;;9.38;7.10;;;;;;;7.31;100.00;102334.44;3616838;39;20095;-66
2021/05/28 01:00:54;;;;;;;14.80;8.13;;;;;;;7.41;100.00;102342.88;3616645;39;20047;-64
2021/05/28 01:03:20;;;;;;;14.88;7.65;;;;;;;7.33;100.00;102346.81;3616508;39;20399;-64
2021/05/28 01:08:49;;;;;;;13.40;8.30;;;;;;;7.30;100.00;102341.63;3622310;22;20057;-64
2021/05/28 01:11:15;;;;;;;13.70;7.95;;;;;;;7.33;100.00;102341.47;3572147;40;20105;-64
2021/05/28 01:13:41;;;;;;;12.85;7.57;;;;;;;7.36;100.00;102335.94;3572618;40;20079;-65
2021/05/28 01:16:07;;;;;;;11.45;7.13;;;;;;;7.12;100.00;102337.19;3571610;40;20111;-64
2021/05/28 01:18:35;;;;;;;14.68;8.07;;;;;;;7.02;100.00;102339.44;3572542;40;20067;-64
2021/05/28 01:21:01;;;;;;;14.30;7.68;;;;;;;7.17;100.00;102340.53;3581111;40;20053;-64
2021/05/28 01:23:27;;;;;;;17.23;8.65;;;;;;;7.03;100.00;102337.66;3581694;40;20322;-64
2021/05/28 01:25:53;;;;;;;12.15;7.55;;;;;;;7.03;100.00;102337.66;3581818;40;20448;-64
2021/05/28 01:28:19;;;;;;;16.02;7.45;;;;;;;7.03;100.00;102334.97;3656626;22;20305;-64
2021/05/28 01:30:46;;;;;;;17.15;7.32;;;;;;;6.86;100.00;102342.03;3590317;39;20047;-64
2021/05/28 01:33:12;;;;;;;13.82;6.88;;;;;;;6.79;100.00;102343.28;3590678;39;20060;-64
2021/05/28 01:35:38;;;;;;;14.45;7.63;;;;;;;6.76;100.00;102335.41;3590827;39;20065;-64
2021/05/28 01:38:05;;;;;;;12.63;7.80;;;;;;;6.79;100.00;102336.13;3590639;39;20042;-64
2021/05/28 01:40:33;;;;;;;14.13;8.15;;;;;;;6.70;100.00;102335.69;3591401;39;20416;-64
2021/05/28 01:43:00;;;;;;;13.95;7.82;;;;;;;6.56;100.00;102331.88;3590364;39;20060;-64
2021/05/28 01:45:26;;;;;;;12.90;7.95;;;;;;;6.55;100.00;102338.19;3595108;39;20051;-64
2021/05/28 01:47:52;;;;;;;10.77;7.97;;;;;;;6.59;100.00;102338.88;3591767;39;20068;-64
2021/05/28 01:50:19;;;;;;;12.88;7.28;;;;;;;6.56;100.00;102337.22;3590395;40;20052;-64
2021/05/28 01:52:45;;;;;;;13.90;7.18;;;;;;;6.52;100.00;102335.63;3590388;39;20029;-64
2021/05/28 01:55:13;;;;;;;11.35;7.80;;;;;;;6.47;100.00;102335.00;3591215;39;20032;-63
2021/05/28 01:57:41;;;;;;;12.48;8.13;;;;;;;6.33;100.00;102338.34;3592497;39;20188;-63
2021/05/28 02:00:56;;;;;;;14.10;7.95;;;;;;;6.46;100.00;102338.59;3618500;22;20056;-64
2021/05/28 02:03:23;;;;;;;12.30;8.50;;;;;;;6.46;100.00;102338.59;3563137;40;20060;-64
2021/05/28 02:05:49;;;;;;;15.02;8.30;;;;;;;6.50;100.00;102340.19;3571494;40;20134;-64
2021/05/28 02:08:15;;;;;;;14.13;9.18;;;;;;;6.41;100.00;102346.00;3571341;40;20307;-64
2021/05/28 02:10:42;;;;;;;13.10;8.02;;;;;;;6.54;100.00;102347.13;3569064;40;20056;-64
2021/05/28 02:13:09;;;;;;;14.15;9.95;;;;;;;6.59;100.00;102339.75;3568881;40;20108;-64
2021/05/28 02:15:35;;;;;;;14.48;9.75;;;;;;;6.72;100.00;102341.84;3573346;40;20045;-63
2021/05/28 02:18:01;;;;;;;17.00;8.85;;;;;;;6.62;100.00;102336.91;3566184;40;20048;-64
2021/05/28 02:20:27;;;;;;;16.05;9.50;;;;;;;6.74;100.00;102340.81;3570660;40;20089;-64
2021/05/28 02:22:53;;;;;;;11.88;8.15;;;;;;;6.61;100.00;102343.22;3569591;40;20041;-64
2021/05/28 02:25:20;;;;;;;11.60;8.20;;;;;;;6.54;100.00;102355.16;3569176;40;20406;-64
2021/05/28 02:27:46;;;;;;;14.80;8.35;;;;;;;6.39;100.00;102354.09;3568230;40;20081;-64
2021/05/28 02:30:15;;;;;;;11.98;8.13;;;;;;;6.41;100.00;102356.69;3570124;40;20050;-65
2021/05/28 02:32:41;;;;;;;10.48;7.95;;;;;;;6.40;100.00;102360.28;3570858;40;20059;-64
2021/05/28 02:35:09;;;;;;;12.75;8.40;;;;;;;6.36;100.00;102356.91;3570529;40;20060;-64
2021/05/28 02:37:35;;;;;;;14.32;8.45;;;;;;;6.20;100.00;102356.75;3568369;40;20115;-64
2021/05/28 02:40:01;;;;;;;10.77;8.23;;;;;;;6.17;100.00;102354.22;3573902;40;20408;-64
2021/05/28 02:42:27;;;;;;;10.15;7.40;;;;;;;6.29;100.00;102347.44;3575388;40;20049;-64
2021/05/28 02:44:54;;;;;;;11.85;7.85;;;;;;;6.24;100.00;102360.13;3574576;40;20424;-64
2021/05/28 02:47:20;;;;;;;15.40;8.50;;;;;;;6.25;100.00;102348.50;3575797;40;20084;-64
2021/05/28 02:49:46;;;;;;;13.77;8.50;;;;;;;6.14;100.00;102355.22;3575135;40;20150;-64
2021/05/28 02:52:12;;;;;;;14.77;9.05;;;;;;;6.01;100.00;102366.53;3575386;40;20053;-64
2021/05/28 02:54:38;;;;;;;12.50;8.20;;;;;;;5.93;100.00;102362.38;3574968;40;20386;-64
2021/05/28 02:57:05;;;;;;;14.77;7.88;;;;;;;5.89;100.00;102366.13;3575334;40;20045;-64
2021/05/28 02:59:31;;;;;;;14.32;8.48;;;;;;;5.80;100.00;102366.53;3574950;40;20092;-64
2021/05/28 03:01:57;;;;;;;14.73;8.40;;;;;;;5.83;100.00;102370.88;3575921;40;20408;-64
2021/05/28 03:04:24;;;;;;;14.63;8.40;;;;;;;5.85;100.00;102364.53;3575028;40;20418;-64
2021/05/28 03:06:50;;;;;;;11.48;8.38;;;;;;;5.84;100.00;102367.25;3575964;40;20418;-64
2021/05/28 03:09:15;;;;;;;14.57;8.07;;;;;;;5.85;100.00;102379.69;3576301;40;20045;-64
2021/05/28 03:11:42;;;;;;;11.68;8.15;;;;;;;5.86;100.00;102376.97;3576679;40;20056;-64
2021/05/28 03:14:08;;;;;;;13.93;8.48;;;;;;;6.00;100.00;102378.19;3576004;40;20437;-64
2021/05/28 03:16:34;;;;;;;12.85;9.02;;;;;;;5.93;100.00;102381.09;3576650;40;20081;-64
2021/05/28 03:19:02;;;;;;;13.07;8.93;;;;;;;5.78;100.00;102381.75;3578120;40;20147;-64
2021/05/28 03:21:39;;;;;;;11.82;9.32;;;;;;;5.73;100.00;102383.78;3576418;40;20109;-64
2021/05/28 03:24:06;;;;;;;12.15;8.18;;;;;;;5.79;100.00;102387.03;3575128;40;20048;-64
2021/05/28 03:26:32;;;;;;;12.32;8.75;;;;;;;5.72;100.00;102387.38;3566472;40;20049;-64
2021/05/28 03:28:59;;;;;;;13.85;8.95;;;;;;;5.79;100.00;102388.84;3567722;40;20131;-64
2021/05/28 03:31:25;;;;;;;15.18;9.75;;;;;;;5.67;100.00;102389.38;3567441;40;20052;-64
2021/05/28 03:33:52;;;;;;;13.77;8.90;;;;;;;5.72;100.00;102384.72;3575567;40;20057;-64
2021/05/28 03:36:18;;;;;;;15.55;9.73;;;;;;;5.73;100.00;102386.44;3569940;40;20057;-64
2021/05/28 03:38:47;;;;;;;15.85;8.82;;;;;;;5.61;100.00;102391.38;3566090;40;20060;-64
2021/05/28 03:41:13;;;;;;;15.25;8.95;;;;;;;5.71;100.00;102393.66;3566891;40;20050;-64
2021/05/28 03:43:39;;;;;;;13.57;8.93;;;;;;;5.79;100.00;102402.22;3567554;40;20058;-64
2021/05/28 03:46:05;;;;;;;15.25;8.57;;;;;;;5.66;100.00;102401.00;3567129;40;20063;-64
2021/05/28 03:48:32;;;;;;;16.42;10.32;;;;;;;5.63;100.00;102403.81;3566878;40;20049;-65
2021/05/28 03:50:58;;;;;;;21.17;10.65;;;;;;;5.72;100.00;102406.06;3566331;40;20292;-64
2021/05/28 03:53:24;;;;;;;20.25;10.30;;;;;;;5.81;100.00;102400.31;3566405;40;20045;-64
2021/05/28 03:55:51;;;;;;;17.73;11.18;;;;;;;6.03;100.00;102404.75;3573881;40;20581;-64
2021/05/28 03:58:17;;;;;;;16.67;10.57;;;;;;;6.20;100.00;102406.66;3574689;40;20433;-64
2021/05/28 04:00:43;;;;;;;14.45;9.43;;;;;;;6.26;100.00;102404.59;3576611;40;20135;-64
2021/05/28 04:03:09;;;;;;;15.73;10.13;;;;;;;6.32;100.00;102412.31;3576424;40;20388;-64
2021/05/28 04:05:35;;;;;;;17.80;10.10;;;;;;;6.39;100.00;102412.94;3577071;40;20041;-65
2021/05/28 04:08:01;;;;;;;16.33;10.18;;;;;;;6.49;100.00;102405.31;3576929;40;20304;-64
2021/05/28 04:10:27;;;;;;;17.08;10.18;;;;;;;6.56;100.00;102403.25;3562664;40;20097;-65
2021/05/28 04:12:54;;;;;;;16.48;10.07;;;;;;;6.68;100.00;102402.66;3572448;40;20065;-64
2021/05/28 04:15:21;;;;;;;15.52;9.80;;;;;;;6.73;100.00;102411.34;3576551;40;20408;-65
2021/05/28 04:17:47;;;;;;;19.98;10.90;;;;;;;6.80;100.00;102407.44;3576485;40;20077;-64
2021/05/28 04:20:13;;;;;;;17.08;10.43;;;;;;;6.99;100.00;102403.84;3575616;40;20080;-64
2021/05/28 04:22:39;;;;;;;14.30;9.60;;;;;;;6.94;100.00;102409.44;3576538;40;20044;-64
2021/05/28 04:25:07;;;;;;;18.70;10.57;;;;;;;7.06;100.00;102407.13;3576582;40;20037;-65
2021/05/28 04:27:33;;;;;;;13.93;10.07;;;;;;;7.12;100.00;102412.16;3576651;40;20348;-65
2021/05/28 04:30:00;;;;;;;17.67;10.68;;;;;;;7.18;100.00;102414.53;3576095;40;20291;-65
2021/05/28 04:32:26;;;;;;;15.15;10.45;;;;;;;7.26;100.00;102420.38;3575908;40;20069;-65
2021/05/28 04:34:52;;;;;;;15.30;10.52;;;;;;;7.33;100.00;102421.81;3576426;40;20037;-65
2021/05/28 04:37:18;;;;;;;13.65;10.07;;;;;;;7.28;100.00;102429.19;3576675;40;20052;-65
2021/05/28 04:39:44;;;;;;;14.60;9.93;;;;;;;7.48;100.00;102436.25;3576792;40;20328;-65
2021/05/28 04:42:12;;;;;;;18.92;10.85;;;;;;;7.42;100.00;102441.03;3575551;40;20033;-65
2021/05/28 04:44:38;;;;;;;24.15;12.18;;;;;;;7.50;100.00;102434.34;3575962;40;20147;-65
2021/05/28 04:47:05;;;;;;;23.50;12.20;;;;;;;7.67;100.00;102446.91;3575141;40;20071;-65
2021/05/28 04:49:31;;;;;;;19.30;11.70;;;;;;;7.76;100.00;102442.00;3575341;40;20045;-65
2021/05/28 04:51:57;;;;;;;18.27;10.77;;;;;;;8.02;100.00;102436.19;3577092;40;20315;-65
2021/05/28 04:54:24;;;;;;;17.92;11.45;;;;;;;8.16;100.00;102442.63;3575880;40;20049;-65
2021/05/28 04:56:50;;;;;;;13.95;9.73;;;;;;;8.36;100.00;102433.50;3576406;40;20056;-65
2021/05/28 04:59:16;;;;;;;15.68;10.88;;;;;;;8.50;100.00;102443.53;3576233;40;20308;-65
2021/05/28 05:01:42;;;;;;;16.75;10.65;;;;;;;8.43;100.00;102440.25;3575249;40;20399;-66
2021/05/28 05:04:09;;;;;;;14.13;10.68;;;;;;;8.38;100.00;102447.72;3576216;40;20040;-65
2021/05/28 05:06:35;;;;;;;15.18;10.32;;;;;;;8.53;100.00;102446.03;3576785;40;20032;-65
2021/05/28 05:09:01;;;;;;;14.15;9.90;;;;;;;8.81;100.00;102444.53;3576590;40;20053;-65
2021/05/28 05:11:27;;;;;;;17.83;10.35;;;;;;;8.92;100.00;102448.34;3575536;40;20049;-65
2021/05/28 05:13:53;;;;;;;17.33;10.52;;;;;;;9.03;100.00;102450.41;3575840;40;20056;-65
2021/05/28 05:16:19;;;;;;;15.13;10.38;;;;;;;9.30;100.00;102455.16;3575582;40;20060;-65
2021/05/28 05:18:45;;;;;;;18.02;10.32;;;;;;;9.34;100.00;102453.16;3576551;40;20138;-65
2021/05/28 05:21:12;;;;;;;22.05;10.30;;;;;;;9.52;100.00;102461.97;3576138;40;20053;-66
2021/05/28 05:23:39;;;;;;;16.00;9.98;;;;;;;9.67;100.00;102453.00;3576490;40;20390;-65
2021/05/28 05:26:04;;;;;;;16.25;9.43;;;;;;;9.77;100.00;102459.56;3576215;40;20514;-65
2021/05/28 05:28:30;;;;;;;14.77;8.35;;;;;;;9.71;100.00;102461.75;3576413;40;20048;-66
2021/05/28 05:30:56;;;;;;;13.68;8.70;;;;;;;9.78;100.00;102458.59;3574375;40;20057;-65
2021/05/28 05:33:22;;;;;;;13.60;8.93;;;;;;;9.78;100.00;102455.91;3574797;40;20398;-65
2021/05/28 05:35:48;;;;;;;16.25;9.30;;;;;;;9.87;100.00;102453.66;3575756;40;20033;-66
2021/05/28 05:38:18;;;;;;;18.92;9.20;;;;;;;9.79;100.00;102460.34;3576209;40;20153;-65
2021/05/28 05:40:45;;;;;;;19.05;9.77;;;;;;;9.93;100.00;102459.50;3576201;40;20068;-65
2021/05/28 05:43:11;;;;;;;20.15;9.77;;;;;;;9.84;100.00;102468.13;3575752;40;20316;-65
2021/05/28 05:45:37;;;;;;;18.45;8.77;;;;;;;9.65;100.00;102474.59;3575826;40;20052;-65
2021/05/28 05:48:03;;;;;;;16.65;8.90;;;;;;;9.68;100.00;102470.00;3575884;40;20097;-65
2021/05/28 05:50:29;;;;;;;15.38;8.48;;;;;;;9.70;100.00;102471.66;3576703;40;20335;-65
2021/05/28 05:52:56;;;;;;;18.20;9.13;;;;;;;9.72;100.00;102472.41;3570336;40;20060;-65
2021/05/28 05:55:23;;;;;;;19.23;9.40;;;;;;;9.81;100.00;102469.19;3575736;40;20158;-66
2021/05/28 05:57:49;;;;;;;20.65;9.05;;;;;;;9.70;100.00;102479.72;3576228;40;20401;-65
2021/05/28 06:00:16;;;;;;;18.58;9.68;;;;;;;9.54;100.00;102484.25;3574461;40;20411;-65
2021/05/28 06:02:42;;;;;;;16.92;9.77;;;;;;;9.62;100.00;102474.78;3576077;40;20048;-65
2021/05/28 06:05:09;;;;;;;16.92;9.05;;;;;;;9.96;100.00;102474.59;3575892;40;20049;-65
2021/05/28 06:07:35;;;;;;;19.40;8.73;;;;;;;10.23;100.00;102481.94;3576175;40;20067;-65
2021/05/28 06:10:01;;;;;;;15.15;9.07;;;;;;;10.40;100.00;102475.56;3576843;40;20060;-65
2021/05/28 06:12:28;;;;;;;16.30;9.00;;;;;;;10.41;100.00;102483.56;3574954;40;20087;-66
2021/05/28 06:14:54;;;;;;;15.18;8.65;;;;;;;10.57;100.00;102490.66;3574807;40;20060;-65
2021/05/28 06:17:20;;;;;;;21.23;9.57;;;;;;;10.44;100.00;102491.44;3570175;40;20052;-65
2021/05/28 06:19:46;;;;;;;17.98;8.82;;;;;;;10.48;100.00;102484.03;3571224;40;20053;-66
2021/05/28 06:22:12;;;;;;;21.20;9.35;;;;;;;10.37;100.00;102492.78;3574178;40;20326;-65
2021/05/28 06:24:38;;;;;;;14.90;8.63;;;;;;;10.45;100.00;102490.47;3575250;40;20051;-66
2021/05/28 06:27:08;;;;;;;16.95;8.73;;;;;;;10.46;100.00;102494.03;3574085;40;20049;-65
2021/05/28 06:29:35;;;;;;;17.90;9.55;;;;;;;10.52;100.00;102491.81;3575072;40;20126;-66
2021/05/28 06:32:02;;;;;;;18.38;9.18;;;;;;;10.69;100.00;102490.75;3575755;40;20043;-66
2021/05/28 06:34:28;;;;;;;15.88;8.85;;;;;;;11.01;100.00;102493.25;3575255;40;20045;-65
2021/05/28 06:36:54;;;;;;;19.52;8.70;;;;;;;10.83;100.00;102489.03;3571338;40;20360;-66
2021/05/28 06:39:20;;;;;;;16.88;8.45;;;;;;;10.94;100.00;102497.28;3576084;40;20406;-65
2021/05/28 06:41:45;;;;;;;18.27;7.90;;;;;;;11.31;100.00;102491.34;3573803;40;20044;-65
2021/05/28 06:46:57;;;;;;;12.30;7.82;;;;;;;11.45;100.00;102496.66;3679915;22;20066;-66
2021/05/28 06:49:23;;;;;;;14.95;7.60;;;;;;;11.54;100.00;102493.38;3602819;39;20048;-66
2021/05/28 06:51:51;;;;;;;16.90;8.93;;;;;;;11.18;100.00;102494.81;3604628;39;20425;-65
2021/05/28 06:54:17;;;;;;;16.08;8.38;;;;;;;11.02;100.00;102496.78;3597460;39;20066;-65
2021/05/28 06:56:43;;;;;;;14.52;7.32;;;;;;;11.15;100.00;102495.03;3605615;39;20498;-66
2021/05/28 06:59:10;;;;;;;18.83;6.68;;;;;;;11.14;100.00;102504.06;3605351;39;20040;-66
2021/05/28 07:01:37;;;;;;;14.52;7.75;;;;;;;11.41;100.00;102500.56;3604888;39;20082;-66
2021/05/28 07:04:05;;;;;;;13.35;7.35;;;;;;;11.05;100.00;102501.97;3600616;39;20058;-66
2021/05/28 07:06:31;;;;;;;14.95;7.68;;;;;;;11.50;100.00;102499.94;3602359;39;20047;-66
2021/05/28 07:08:58;;;;;;;14.68;7.65;;;;;;;11.44;100.00;102494.06;3603635;39;20408;-66
2021/05/28 07:11:25;;;;;;;11.40;6.90;;;;;;;11.37;100.00;102493.63;3604002;39;20112;-66
2021/05/28 07:13:51;;;;;;;16.13;7.75;;;;;;;11.36;100.00;102499.97;3604660;39;20039;-66
2021/05/28 07:16:17;;;;;;;15.80;7.80;;;;;;;11.62;100.00;102505.50;3604531;39;20047;-66
2021/05/28 07:18:43;;;;;;;10.18;7.07;;;;;;;11.92;100.00;102506.13;3604049;39;20279;-66
2021/05/28 07:21:10;;;;;;;14.02;7.30;;;;;;;11.91;100.00;102508.91;3603756;39;20061;-66
2021/05/28 07:23:36;;;;;;;14.48;7.38;;;;;;;11.78;100.00;102508.00;3602709;39;20044;-66
2021/05/28 07:26:03;;;;;;;17.50;7.60;;;;;;;12.17;100.00;102507.16;3603689;39;20368;-66
2021/05/28 07:28:30;;;;;;;11.02;6.28;;;;;;;12.16;100.00;102512.66;3605098;39;20425;-66
2021/05/28 07:30:56;;;;;;;10.85;6.22;;;;;;;12.36;100.00;102520.22;3604466;39;20099;-67
2021/05/28 07:33:22;;;;;;;10.07;6.13;;;;;;;12.80;100.00;102505.41;3605753;39;20552;-66
2021/05/28 07:35:48;;;;;;;14.27;6.65;;;;;;;12.48;100.00;102513.09;3603469;39;20302;-66
2021/05/28 07:38:15;;;;;;;9.93;6.75;;;;;;;12.30;100.00;102509.00;3603503;39;20047;-66
2021/05/28 07:40:41;;;;;;;11.73;6.82;;;;;;;12.45;100.00;102513.31;3602934;39;20039;-66
2021/05/28 07:43:07;;;;;;;11.57;6.25;;;;;;;12.61;100.00;102519.38;3604144;39;20067;-67
2021/05/28 07:45:34;;;;;;;9.68;6.50;;;;;;;12.74;100.00;102523.91;3604979;39;20091;-66
2021/05/28 07:48:00;;;;;;;10.77;6.47;;;;;;;12.44;100.00;102522.41;3604754;39;20043;-67
2021/05/28 07:50:26;;;;;;;8.82;7.00;;;;;;;12.67;100.00;102518.06;3605051;39;20127;-67
2021/05/28 07:52:52;;;;;;;10.32;6.85;;;;;;;12.59;100.00;102521.31;3604118;39;20397;-67
2021/05/28 07:55:19;;;;;;;10.70;6.57;;;;;;;12.71;100.00;102519.59;3605775;39;20050;-67
2021/05/28 07:57:45;;;;;;;11.73;7.00;;;;;;;12.85;100.00;102520.44;3605178;39;20044;-66
2021/05/28 08:00:13;;;;;;;12.85;6.97;;;;;;;13.14;100.00;102511.06;3604258;39;20111;-67
2021/05/28 08:02:39;;;;;;;12.23;6.30;;;;;;;13.36;100.00;102516.78;3606788;39;20092;-67
2021/05/28 08:05:06;;;;;;;11.93;6.03;;;;;;;13.08;100.00;102518.78;3605745;39;20414;-67
2021/05/28 08:07:33;;;;;;;11.65;5.57;;;;;;;13.15;100.00;102528.16;3605798;39;20063;-67
2021/05/28 08:09:58;;;;;;;10.38;6.10;;;;;;;13.25;100.00;102522.94;3605631;39;20401;-67
2021/05/28 08:12:25;;;;;;;7.70;5.28;;;;;;;13.76;100.00;102521.91;3604885;39;20071;-67
2021/05/28 08:14:51;;;;;;;11.40;5.78;;;;;;;13.75;100.00;102526.47;3604505;39;20423;-67
2021/05/28 08:17:17;;;;;;;9.43;5.28;;;;;;;13.70;100.00;102527.78;3606555;39;20051;-67
2021/05/28 08:19:43;;;;;;;10.63;5.82;;;;;;;13.76;100.00;102521.91;3605857;39;20048;-68
2021/05/28 08:22:09;;;;;;;16.10;8.95;;;;;;;13.96;100.00;102523.09;3605807;39;20051;-67
2021/05/28 08:24:36;;;;;;;11.07;7.22;;;;;;;13.89;100.00;102525.41;3604943;39;20064;-67
2021/05/28 08:27:01;;;;;;;9.82;7.00;;;;;;;13.77;100.00;102515.53;3605484;39;20047;-67
2021/05/28 08:29:28;;;;;;;10.85;6.97;;;;;;;13.89;100.00;102522.69;3606470;39;20310;-67
2021/05/28 08:31:54;;;;;;;9.95;6.93;;;;;;;13.46;100.00;102523.25;3604622;39;20081;-66
2021/05/28 08:34:20;;;;;;;13.15;6.55;;;;;;;13.39;100.00;102513.84;3605394;39;20059;-67
2021/05/28 08:36:46;;;;;;;11.60;6.82;;;;;;;13.76;100.00;102513.78;3606816;39;20028;-67
2021/05/28 08:39:12;;;;;;;10.68;6.25;;;;;;;14.08;100.00;102508.63;3605797;39;20085;-68
2021/05/28 08:41:42;;;;;;;12.02;6.63;;;;;;;14.36;100.00;102514.59;3605930;39;20305;-67
2021/05/28 08:44:10;;;;;;;11.52;6.47;;;;;;;14.66;100.00;102513.16;3606646;39;20430;-67
2021/05/28 08:46:37;;;;;;;13.38;7.55;;;;;;;14.73;100.00;102511.69;3603940;39;20059;-67
2021/05/28 08:49:09;;;;;;;11.23;6.63;;;;;;;14.73;100.00;102521.69;3604113;39;20313;-67
2021/05/28 08:51:39;;;;;;;12.68;7.15;;;;;;;14.89;100.00;102516.75;3603545;39;20051;-67
2021/05/28 08:54:05;;;;;;;12.38;6.60;;;;;;;14.58;100.00;102513.75;3603275;39;20059;-67
2021/05/28 08:56:32;;;;;;;10.50;6.85;;;;;;;14.93;100.00;102517.34;3603351;39;20047;-67
2021/05/28 08:58:58;;;;;;;10.75;6.63;;;;;;;14.97;100.00;102511.59;3605133;39;20103;-67
2021/05/28 09:01:24;;;;;;;9.75;6.45;;;;;;;14.96;100.00;102509.84;3605104;39;20125;-67
2021/05/28 09:03:58;;;;;;;8.77;6.40;;;;;;;15.24;100.00;102504.88;3605441;39;20054;-68
2021/05/28 09:06:24;;;;;;;9.23;6.10;;;;;;;15.46;100.00;102501.25;3604149;39;20051;-68
2021/05/28 09:08:50;;;;;;;10.23;5.65;;;;;;;15.36;100.00;102498.44;3606017;39;20306;-67
2021/05/28 09:11:18;;;;;;;9.27;6.13;;;;;;;15.52;100.00;102502.59;3605518;39;20039;-67
2021/05/28 09:13:45;;;;;;;9.27;5.55;;;;;;;15.25;100.00;102495.72;3604581;39;20375;-67
2021/05/28 09:16:12;;;;;;;8.18;5.30;;;;;;;15.49;100.00;102489.25;3604014;39;20035;-67
2021/05/28 09:18:47;;;;;;;7.72;5.35;;;;;;;15.69;100.00;102493.88;3604128;39;20418;-67
2021/05/28 09:21:21;;;;;;;11.48;5.70;;;;;;;15.90;100.00;102493.94;3605291;39;20066;-68
2021/05/28 09:23:47;;;;;;;7.43;5.20;;;;;;;15.91;100.00;102492.09;3604303;39;20043;-67
2021/05/28 09:26:14;;;;;;;8.20;4.85;;;;;;;16.21;100.00;102498.56;3604210;39;20062;-67
2021/05/28 09:28:42;;;;;;;8.85;5.65;;;;;;;16.60;100.00;102499.66;3605048;39;20133;-67
2021/05/28 09:31:13;;;;;;;10.05;5.13;;;;;;;16.44;100.00;102494.75;3605063;39;20044;-68
2021/05/28 09:33:41;;;;;;;8.73;4.57;;;;;;;16.41;100.00;102500.41;3604856;39;20397;-67
2021/05/28 09:36:11;;;;;;;9.23;4.80;;;;;;;16.45;100.00;102503.75;3605125;39;20140;-67
2021/05/28 09:38:38;;;;;;;;;;;;;;;16.77;100.00;102498.16;3607432;39;20076;-67
2021/05/28 09:41:04;;;;;;;6.53;4.30;;;;;;;16.77;100.00;102489.16;3603781;39;20190;-67
2021/05/28 09:43:31;;;;;;;8.77;4.88;;;;;;;17.15;100.00;102488.44;3606482;39;20036;-68
2021/05/28 09:45:57;;;;;;;8.25;4.70;;;;;;;17.06;100.00;102492.00;3604845;39;20080;-67
2021/05/28 09:48:29;;;;;;;6.68;3.92;;;;;;;17.16;100.00;102481.13;3603394;39;20077;-68
2021/05/28 09:50:57;;;;;;;8.18;4.63;;;;;;;17.12;100.00;102480.56;3604580;39;20194;-68
2021/05/28 09:53:42;;;;;;;8.85;5.15;;;;;;;16.85;100.00;102485.75;3605296;39;20172;-68
2021/05/28 09:56:22;;;;;;;7.00;4.68;;;;;;;17.08;100.00;102476.41;3604818;39;20109;-68
2021/05/28 09:59:01;;;;;;;6.63;4.80;;;;;;;16.80;100.00;102472.56;3604648;39;20197;-68
2021/05/28 10:01:28;;;;;;;6.47;4.40;;;;;;;17.19;100.00;102466.41;3603500;39;20079;-68
2021/05/28 10:04:01;;;;;;;8.73;4.50;;;;;;;17.39;100.00;102461.81;3605250;39;20044;-68
2021/05/28 10:06:29;;;;;;;7.05;4.05;;;;;;;16.90;100.00;102469.91;3604983;39;20074;-68
2021/05/28 10:08:57;;;;;;;9.05;3.97;;;;;;;16.89;100.00;102477.22;3606004;39;20322;-67
2021/05/28 10:11:25;;;;;;;7.75;4.28;;;;;;;16.78;100.00;102477.28;3604626;39;20306;-67
2021/05/28 10:13:51;;;;;;;7.97;4.00;;;;;;;17.54;100.00;102470.47;3605526;39;20057;-67
2021/05/28 10:16:17;;;;;;;8.32;4.80;;;;;;;17.84;100.00;102464.88;3605543;39;20079;-67
2021/05/28 10:18:44;;;;;;;8.27;3.95;;;;;;;18.00;100.00;102469.72;3606138;39;20063;-68
2021/05/28 10:21:10;;;;;;;6.03;4.05;;;;;;;17.89;100.00;102469.00;3605646;39;20067;-67
2021/05/28 10:23:36;;;;;;;5.32;3.85;;;;;;;17.62;100.00;102467.88;3605775;39;20064;-67
2021/05/28 10:26:03;;;;;;;6.20;3.97;;;;;;;17.39;100.00;102465.44;3604677;39;20425;-69
2021/05/28 10:28:31;;;;;;;5.03;3.85;;;;;;;17.72;100.00;102463.28;3603166;39;20046;-67
2021/05/28 10:30:57;;;;;;;8.10;4.30;;;;;;;17.97;100.00;102461.00;3603720;39;20048;-68
2021/05/28 10:33:24;;;;;;;6.35;3.90;;;;;;;18.22;100.00;102467.69;3604391;39;20059;-69
2021/05/28 10:35:52;;;;;;;6.18;3.38;;;;;;;18.12;100.00;102464.13;3605538;39;20044;-69
2021/05/28 10:38:51;;;;;;;7.05;3.92;;;;;;;17.82;100.00;102466.84;3604570;39;20051;-69
2021/05/28 10:41:37;;;;;;;6.68;3.72;;;;;;;18.20;100.00;102466.97;3562629;40;20057;-69
2021/05/28 10:44:09;;;;;;;6.93;3.80;;;;;;;18.03;100.00;102463.13;3599362;39;20332;-69
2021/05/28 10:46:36;;;;;;;7.70;4.70;;;;;;;17.54;100.00;102462.28;3603430;39;20062;-69
2021/05/28 10:49:12;;;;;;;5.75;3.80;;;;;;;17.96;100.00;102459.28;3604056;39;20055;-69
2021/05/28 10:52:04;;;;;;;5.60;4.00;;;;;;;17.73;100.00;102459.56;3604332;39;20121;-69
2021/05/28 10:54:33;;;;;;;5.75;3.30;;;;;;;17.77;100.00;102455.56;3602241;39;20339;-69
2021/05/28 10:57:25;;;;;;;4.80;3.65;;;;;;;18.21;100.00;102457.78;3603049;39;20414;-69
2021/05/28 10:59:54;;;;;;;7.25;3.40;;;;;;;18.32;100.00;102457.63;3602187;39;20279;-69
2021/05/28 11:02:52;;;;;;;5.63;3.35;;;;;;;18.44;100.00;102452.84;3603053;39;20410;-70
2021/05/28 11:05:42;;;;;;;4.05;2.80;;;;;;;18.72;100.00;102450.13;3602844;39;20047;-69
2021/05/28 11:08:48;;;;;;;4.60;2.40;;;;;;;19.03;93.71;102455.31;3604260;39;20048;-70
2021/05/28 11:11:54;;;;;;;4.10;2.72;;;;;;;19.19;96.28;102449.19;3604277;39;20382;-69
2021/05/28 11:14:21;;;;;;;4.28;2.50;;;;;;;18.98;89.35;102449.47;3602547;39;20310;-70
2021/05/28 11:17:10;;;;;;;6.90;2.70;;;;;;;19.15;86.42;102445.88;3603578;39;20042;-70
2021/05/28 11:19:43;;;;;;;5.32;2.83;;;;;;;19.54;95.58;102445.59;3604099;39;20065;-69
2021/05/28 11:22:12;;;;;;;5.07;2.90;;;;;;;18.70;91.05;102442.09;3603801;39;20414;-69
2021/05/28 11:24:43;;;;;;;3.42;2.42;;;;;;;18.69;94.19;102445.84;3602862;39;20052;-70